sensor_id;sensor_type;location;lat;lon;timestamp;P1;durP1;ratioP1;P2;durP2;ratioP2
78324;SDS011;67584;51.400;6.692;2024-03-02T00:00:25;3.58;;;2.40;;
78324;SDS011;67584;51.400;6.692;2024-03-02T00:02:52;3.25;;;2.17;;
78324;SDS011;67584;51.400;6.692;2024-03-02T00:05:19;6.13;;;2.60;;
78324;SDS011;67584;51.400;6.692;2024-03-02T00:07:47;3.58;;;2.47;;
78324;SDS011;67584;51.400;6.692;2024-03-02T00:10:22;4.10;;;2.35;;
78324;SDS011;67584;51.400;6.692;2024-03-02T00:12:55;2.25;;;1.88;;
78324;SDS011;67584;51.400;6.692;2024-03-02T00:15:41;4.35;;;2.40;;
78324;SDS011;67584;51.400;6.692;2024-03-02T00:18:19;4.97;;;2.50;;
78324;SDS011;67584;51.400;6.692;2024-03-02T00:20:49;3.30;;;2.33;;
78324;SDS011;67584;51.400;6.692;2024-03-02T00:23:22;2.63;;;2.30;;
78324;SDS011;67584;51.400;6.692;2024-03-02T00:25:50;2.50;;;2.28;;
78324;SDS011;67584;51.400;6.692;2024-03-02T00:28:21;3.08;;;2.25;;
78324;SDS011;67584;51.400;6.692;2024-03-02T00:30:58;2.85;;;2.40;;
78324;SDS011;67584;51.400;6.692;2024-03-02T00:33:34;5.65;;;2.55;;
78324;SDS011;67584;51.400;6.692;2024-03-02T00:36:02;3.88;;;2.20;;
78324;SDS011;67584;51.400;6.692;2024-03-02T00:38:29;4.60;;;2.38;;
78324;SDS011;67584;51.400;6.692;2024-03-02T00:40:59;2.78;;;2.38;;
78324;SDS011;67584;51.400;6.692;2024-03-02T00:46:11;3.78;;;2.22;;
78324;SDS011;67584;51.400;6.692;2024-03-02T00:48:38;4.38;;;2.42;;
78324;SDS011;67584;51.400;6.692;2024-03-02T00:51:10;3.95;;;2.28;;
78324;SDS011;67584;51.400;6.692;2024-03-02T00:53:36;4.43;;;2.33;;
78324;SDS011;67584;51.400;6.692;2024-03-02T00:56:02;2.92;;;2.40;;
78324;SDS011;67584;51.400;6.692;2024-03-02T00:58:28;5.18;;;2.55;;
78324;SDS011;67584;51.400;6.692;2024-03-02T01:00:54;5.10;;;2.70;;
78324;SDS011;67584;51.400;6.692;2024-03-02T01:03:20;6.68;;;2.90;;
78324;SDS011;67584;51.400;6.692;2024-03-02T01:05:46;3.85;;;2.53;;
78324;SDS011;67584;51.400;6.692;2024-03-02T01:08:12;4.85;;;2.22;;
78324;SDS011;67584;51.400;6.692;2024-03-02T01:10:38;5.75;;;2.58;;
78324;SDS011;67584;51.400;6.692;2024-03-02T01:13:03;4.45;;;2.78;;
78324;SDS011;67584;51.400;6.692;2024-03-02T01:15:29;4.68;;;2.72;;
78324;SDS011;67584;51.400;6.692;2024-03-02T01:17:55;3.38;;;2.20;;
78324;SDS011;67584;51.400;6.692;2024-03-02T01:20:20;2.47;;;1.98;;
78324;SDS011;67584;51.400;6.692;2024-03-02T01:22:47;3.17;;;2.40;;
78324;SDS011;67584;51.400;6.692;2024-03-02T01:25:12;3.55;;;2.17;;
78324;SDS011;67584;51.400;6.692;2024-03-02T01:27:38;4.20;;;2.45;;
78324;SDS011;67584;51.400;6.692;2024-03-02T01:30:04;3.47;;;2.38;;
78324;SDS011;67584;51.400;6.692;2024-03-02T01:32:31;3.85;;;2.60;;
78324;SDS011;67584;51.400;6.692;2024-03-02T01:34:56;4.82;;;3.00;;
78324;SDS011;67584;51.400;6.692;2024-03-02T01:37:22;4.75;;;3.65;;
78324;SDS011;67584;51.400;6.692;2024-03-02T01:39:48;5.28;;;2.75;;
78324;SDS011;67584;51.400;6.692;2024-03-02T01:42:13;4.60;;;3.00;;
78324;SDS011;67584;51.400;6.692;2024-03-02T01:44:39;4.47;;;3.00;;
78324;SDS011;67584;51.400;6.692;2024-03-02T01:47:05;5.57;;;2.78;;
78324;SDS011;67584;51.400;6.692;2024-03-02T01:49:32;6.40;;;3.20;;
78324;SDS011;67584;51.400;6.692;2024-03-02T01:51:59;5.95;;;2.75;;
78324;SDS011;67584;51.400;6.692;2024-03-02T01:54:25;4.13;;;2.47;;
78324;SDS011;67584;51.400;6.692;2024-03-02T01:56:50;5.40;;;2.95;;
78324;SDS011;67584;51.400;6.692;2024-03-02T01:59:16;6.20;;;3.03;;
78324;SDS011;67584;51.400;6.692;2024-03-02T02:01:42;5.70;;;3.75;;
78324;SDS011;67584;51.400;6.692;2024-03-02T02:04:08;7.03;;;3.22;;
78324;SDS011;67584;51.400;6.692;2024-03-02T02:06:33;4.13;;;2.97;;
78324;SDS011;67584;51.400;6.692;2024-03-02T02:08:59;5.75;;;3.60;;
78324;SDS011;67584;51.400;6.692;2024-03-02T02:11:25;7.85;;;3.75;;
78324;SDS011;67584;51.400;6.692;2024-03-02T02:13:51;5.38;;;3.30;;
78324;SDS011;67584;51.400;6.692;2024-03-02T02:16:17;2.78;;;2.00;;
78324;SDS011;67584;51.400;6.692;2024-03-02T02:18:43;3.30;;;2.30;;
78324;SDS011;67584;51.400;6.692;2024-03-02T02:21:08;2.75;;;1.98;;
78324;SDS011;67584;51.400;6.692;2024-03-02T02:23:34;2.97;;;1.80;;
78324;SDS011;67584;51.400;6.692;2024-03-02T02:26:00;2.75;;;1.98;;
78324;SDS011;67584;51.400;6.692;2024-03-02T02:28:27;2.72;;;2.13;;
78324;SDS011;67584;51.400;6.692;2024-03-02T02:30:54;3.65;;;2.38;;
78324;SDS011;67584;51.400;6.692;2024-03-02T02:33:21;2.45;;;1.90;;
78324;SDS011;67584;51.400;6.692;2024-03-02T02:35:47;2.78;;;1.70;;
78324;SDS011;67584;51.400;6.692;2024-03-02T02:38:12;2.45;;;1.70;;
78324;SDS011;67584;51.400;6.692;2024-03-02T02:40:38;3.45;;;1.92;;
78324;SDS011;67584;51.400;6.692;2024-03-02T02:43:04;3.08;;;1.83;;
78324;SDS011;67584;51.400;6.692;2024-03-02T02:45:29;2.25;;;1.75;;
78324;SDS011;67584;51.400;6.692;2024-03-02T02:47:55;2.17;;;1.63;;
78324;SDS011;67584;51.400;6.692;2024-03-02T02:50:21;2.25;;;1.92;;
78324;SDS011;67584;51.400;6.692;2024-03-02T02:52:47;2.40;;;1.88;;
78324;SDS011;67584;51.400;6.692;2024-03-02T02:55:12;1.98;;;1.77;;
78324;SDS011;67584;51.400;6.692;2024-03-02T02:57:41;4.30;;;2.22;;
78324;SDS011;67584;51.400;6.692;2024-03-02T03:02:38;2.55;;;1.80;;
78324;SDS011;67584;51.400;6.692;2024-03-02T03:05:05;2.60;;;2.00;;
78324;SDS011;67584;51.400;6.692;2024-03-02T03:07:32;2.45;;;1.92;;
78324;SDS011;67584;51.400;6.692;2024-03-02T03:09:59;2.92;;;1.55;;
78324;SDS011;67584;51.400;6.692;2024-03-02T03:12:24;2.92;;;1.90;;
78324;SDS011;67584;51.400;6.692;2024-03-02T03:14:50;2.83;;;1.85;;
78324;SDS011;67584;51.400;6.692;2024-03-02T03:17:16;1.77;;;1.60;;
78324;SDS011;67584;51.400;6.692;2024-03-02T03:19:42;2.05;;;1.73;;
78324;SDS011;67584;51.400;6.692;2024-03-02T03:22:08;3.47;;;1.90;;
78324;SDS011;67584;51.400;6.692;2024-03-02T03:24:33;2.63;;;2.33;;
78324;SDS011;67584;51.400;6.692;2024-03-02T03:26:59;3.00;;;2.25;;
78324;SDS011;67584;51.400;6.692;2024-03-02T03:29:25;2.60;;;1.83;;
78324;SDS011;67584;51.400;6.692;2024-03-02T03:31:50;3.53;;;2.28;;
78324;SDS011;67584;51.400;6.692;2024-03-02T03:34:16;3.65;;;2.22;;
78324;SDS011;67584;51.400;6.692;2024-03-02T03:36:42;2.08;;;1.88;;
78324;SDS011;67584;51.400;6.692;2024-03-02T03:39:08;2.97;;;2.08;;
78324;SDS011;67584;51.400;6.692;2024-03-02T03:41:34;4.28;;;2.42;;
78324;SDS011;67584;51.400;6.692;2024-03-02T03:43:59;2.83;;;1.90;;
78324;SDS011;67584;51.400;6.692;2024-03-02T03:46:25;2.92;;;2.25;;
78324;SDS011;67584;51.400;6.692;2024-03-02T03:48:51;3.88;;;2.25;;
78324;SDS011;67584;51.400;6.692;2024-03-02T03:51:16;2.17;;;1.98;;
78324;SDS011;67584;51.400;6.692;2024-03-02T03:53:42;2.33;;;1.98;;
78324;SDS011;67584;51.400;6.692;2024-03-02T03:56:08;2.30;;;1.90;;
78324;SDS011;67584;51.400;6.692;2024-03-02T03:58:33;2.35;;;1.85;;
78324;SDS011;67584;51.400;6.692;2024-03-02T04:00:59;2.95;;;1.77;;
78324;SDS011;67584;51.400;6.692;2024-03-02T04:03:25;2.78;;;1.77;;
78324;SDS011;67584;51.400;6.692;2024-03-02T04:05:50;3.83;;;1.98;;
78324;SDS011;67584;51.400;6.692;2024-03-02T04:08:16;2.63;;;1.80;;
78324;SDS011;67584;51.400;6.692;2024-03-02T04:10:42;2.22;;;1.60;;
78324;SDS011;67584;51.400;6.692;2024-03-02T04:13:07;2.90;;;1.98;;
78324;SDS011;67584;51.400;6.692;2024-03-02T04:15:33;2.80;;;1.85;;
78324;SDS011;67584;51.400;6.692;2024-03-02T04:17:59;3.05;;;1.65;;
78324;SDS011;67584;51.400;6.692;2024-03-02T04:20:24;2.45;;;1.70;;
78324;SDS011;67584;51.400;6.692;2024-03-02T04:22:50;3.95;;;2.05;;
78324;SDS011;67584;51.400;6.692;2024-03-02T04:25:16;3.92;;;2.05;;
78324;SDS011;67584;51.400;6.692;2024-03-02T04:27:42;2.53;;;1.90;;
78324;SDS011;67584;51.400;6.692;2024-03-02T04:30:08;3.00;;;1.88;;
78324;SDS011;67584;51.400;6.692;2024-03-02T04:32:34;3.15;;;2.38;;
78324;SDS011;67584;51.400;6.692;2024-03-02T04:35:01;2.95;;;1.88;;
78324;SDS011;67584;51.400;6.692;2024-03-02T04:37:27;2.42;;;1.90;;
78324;SDS011;67584;51.400;6.692;2024-03-02T04:39:52;3.00;;;2.10;;
78324;SDS011;67584;51.400;6.692;2024-03-02T04:42:18;2.40;;;1.75;;
78324;SDS011;67584;51.400;6.692;2024-03-02T04:44:44;3.42;;;1.85;;
78324;SDS011;67584;51.400;6.692;2024-03-02T04:47:10;4.40;;;2.53;;
78324;SDS011;67584;51.400;6.692;2024-03-02T04:49:35;3.55;;;2.00;;
78324;SDS011;67584;51.400;6.692;2024-03-02T04:52:01;2.30;;;1.90;;
78324;SDS011;67584;51.400;6.692;2024-03-02T04:54:27;2.90;;;1.92;;
78324;SDS011;67584;51.400;6.692;2024-03-02T04:56:52;2.45;;;2.00;;
78324;SDS011;67584;51.400;6.692;2024-03-02T04:59:18;3.83;;;1.92;;
78324;SDS011;67584;51.400;6.692;2024-03-02T05:01:44;2.45;;;1.85;;
78324;SDS011;67584;51.400;6.692;2024-03-02T05:04:11;3.65;;;2.10;;
78324;SDS011;67584;51.400;6.692;2024-03-02T05:06:40;4.32;;;2.33;;
78324;SDS011;67584;51.400;6.692;2024-03-02T05:09:06;5.15;;;2.30;;
78324;SDS011;67584;51.400;6.692;2024-03-02T05:11:32;3.75;;;2.40;;
78324;SDS011;67584;51.400;6.692;2024-03-02T05:14:07;2.95;;;1.92;;
78324;SDS011;67584;51.400;6.692;2024-03-02T05:19:06;3.03;;;2.00;;
78324;SDS011;67584;51.400;6.692;2024-03-02T05:21:32;3.22;;;2.00;;
78324;SDS011;67584;51.400;6.692;2024-03-02T05:23:58;2.95;;;2.00;;
78324;SDS011;67584;51.400;6.692;2024-03-02T05:26:24;4.10;;;2.30;;
78324;SDS011;67584;51.400;6.692;2024-03-02T05:28:50;3.25;;;2.38;;
78324;SDS011;67584;51.400;6.692;2024-03-02T05:31:16;3.00;;;2.05;;
78324;SDS011;67584;51.400;6.692;2024-03-02T05:33:42;3.10;;;2.03;;
78324;SDS011;67584;51.400;6.692;2024-03-02T05:36:08;3.70;;;2.33;;
78324;SDS011;67584;51.400;6.692;2024-03-02T05:38:34;3.58;;;2.40;;
78324;SDS011;67584;51.400;6.692;2024-03-02T05:41:00;3.47;;;2.17;;
78324;SDS011;67584;51.400;6.692;2024-03-02T05:43:26;3.65;;;2.45;;
78324;SDS011;67584;51.400;6.692;2024-03-02T05:45:52;4.65;;;2.85;;
78324;SDS011;67584;51.400;6.692;2024-03-02T05:48:17;5.07;;;3.00;;
78324;SDS011;67584;51.400;6.692;2024-03-02T05:50:43;7.32;;;3.40;;
78324;SDS011;67584;51.400;6.692;2024-03-02T05:53:09;7.28;;;3.30;;
78324;SDS011;67584;51.400;6.692;2024-03-02T05:55:34;9.02;;;3.63;;
78324;SDS011;67584;51.400;6.692;2024-03-02T05:58:00;4.63;;;3.15;;
78324;SDS011;67584;51.400;6.692;2024-03-02T06:00:31;3.92;;;2.58;;
78324;SDS011;67584;51.400;6.692;2024-03-02T06:02:58;3.90;;;3.10;;
78324;SDS011;67584;51.400;6.692;2024-03-02T06:05:24;2.80;;;2.30;;
78324;SDS011;67584;51.400;6.692;2024-03-02T06:07:50;5.13;;;2.67;;
78324;SDS011;67584;51.400;6.692;2024-03-02T06:10:16;4.07;;;3.08;;
78324;SDS011;67584;51.400;6.692;2024-03-02T06:12:42;6.53;;;3.25;;
78324;SDS011;67584;51.400;6.692;2024-03-02T06:15:08;7.88;;;3.40;;
78324;SDS011;67584;51.400;6.692;2024-03-02T06:17:34;5.00;;;3.08;;
78324;SDS011;67584;51.400;6.692;2024-03-02T06:20:00;2.58;;;2.28;;
78324;SDS011;67584;51.400;6.692;2024-03-02T06:22:26;4.72;;;2.92;;
78324;SDS011;67584;51.400;6.692;2024-03-02T06:24:52;4.07;;;3.00;;
78324;SDS011;67584;51.400;6.692;2024-03-02T06:27:18;4.88;;;2.92;;
78324;SDS011;67584;51.400;6.692;2024-03-02T06:29:43;3.10;;;2.45;;
78324;SDS011;67584;51.400;6.692;2024-03-02T06:32:09;3.95;;;3.10;;
78324;SDS011;67584;51.400;6.692;2024-03-02T06:34:34;4.15;;;3.55;;
78324;SDS011;67584;51.400;6.692;2024-03-02T06:37:00;6.53;;;3.55;;
78324;SDS011;67584;51.400;6.692;2024-03-02T06:39:26;5.45;;;3.78;;
78324;SDS011;67584;51.400;6.692;2024-03-02T06:41:51;5.22;;;3.30;;
78324;SDS011;67584;51.400;6.692;2024-03-02T06:44:17;5.53;;;3.70;;
78324;SDS011;67584;51.400;6.692;2024-03-02T06:46:43;6.30;;;3.63;;
78324;SDS011;67584;51.400;6.692;2024-03-02T06:49:08;5.55;;;3.63;;
78324;SDS011;67584;51.400;6.692;2024-03-02T06:51:35;8.40;;;3.65;;
78324;SDS011;67584;51.400;6.692;2024-03-02T06:54:02;5.32;;;3.92;;
78324;SDS011;67584;51.400;6.692;2024-03-02T06:56:34;7.47;;;3.00;;
78324;SDS011;67584;51.400;6.692;2024-03-02T06:59:05;8.70;;;3.40;;
78324;SDS011;67584;51.400;6.692;2024-03-02T07:01:33;4.18;;;2.92;;
78324;SDS011;67584;51.400;6.692;2024-03-02T07:04:09;6.72;;;3.90;;
78324;SDS011;67584;51.400;6.692;2024-03-02T07:06:36;6.18;;;3.25;;
78324;SDS011;67584;51.400;6.692;2024-03-02T07:09:04;4.47;;;3.10;;
78324;SDS011;67584;51.400;6.692;2024-03-02T07:11:32;5.28;;;2.65;;
78324;SDS011;67584;51.400;6.692;2024-03-02T07:14:02;4.75;;;2.80;;
78324;SDS011;67584;51.400;6.692;2024-03-02T07:16:28;4.20;;;2.63;;
78324;SDS011;67584;51.400;6.692;2024-03-02T07:18:55;3.30;;;3.00;;
78324;SDS011;67584;51.400;6.692;2024-03-02T07:21:22;4.00;;;2.72;;
78324;SDS011;67584;51.400;6.692;2024-03-02T07:23:48;4.85;;;3.42;;
78324;SDS011;67584;51.400;6.692;2024-03-02T07:26:14;6.13;;;3.53;;
78324;SDS011;67584;51.400;6.692;2024-03-02T07:28:46;7.50;;;4.05;;
78324;SDS011;67584;51.400;6.692;2024-03-02T07:31:12;4.85;;;3.55;;
78324;SDS011;67584;51.400;6.692;2024-03-02T07:33:38;9.38;;;4.13;;
78324;SDS011;67584;51.400;6.692;2024-03-02T07:36:04;8.50;;;4.13;;
78324;SDS011;67584;51.400;6.692;2024-03-02T07:38:30;7.97;;;4.28;;
78324;SDS011;67584;51.400;6.692;2024-03-02T07:40:57;6.55;;;3.78;;
78324;SDS011;67584;51.400;6.692;2024-03-02T07:43:22;6.45;;;3.28;;
78324;SDS011;67584;51.400;6.692;2024-03-02T07:45:48;5.53;;;3.58;;
78324;SDS011;67584;51.400;6.692;2024-03-02T07:48:14;9.48;;;4.72;;
78324;SDS011;67584;51.400;6.692;2024-03-02T07:50:40;9.82;;;4.85;;
78324;SDS011;67584;51.400;6.692;2024-03-02T07:53:06;8.88;;;4.68;;
78324;SDS011;67584;51.400;6.692;2024-03-02T07:55:33;9.13;;;4.57;;
78324;SDS011;67584;51.400;6.692;2024-03-02T07:58:00;4.88;;;3.67;;
78324;SDS011;67584;51.400;6.692;2024-03-02T08:00:26;4.20;;;3.13;;
78324;SDS011;67584;51.400;6.692;2024-03-02T08:02:52;4.38;;;2.80;;
78324;SDS011;67584;51.400;6.692;2024-03-02T08:05:18;3.55;;;2.72;;
78324;SDS011;67584;51.400;6.692;2024-03-02T08:07:45;3.20;;;2.55;;
78324;SDS011;67584;51.400;6.692;2024-03-02T08:10:11;4.32;;;2.65;;
78324;SDS011;67584;51.400;6.692;2024-03-02T08:12:37;2.85;;;2.30;;
78324;SDS011;67584;51.400;6.692;2024-03-02T08:15:04;3.08;;;2.40;;
78324;SDS011;67584;51.400;6.692;2024-03-02T08:17:30;6.07;;;2.90;;
78324;SDS011;67584;51.400;6.692;2024-03-02T08:19:56;4.20;;;3.28;;
78324;SDS011;67584;51.400;6.692;2024-03-02T08:22:23;5.53;;;2.75;;
78324;SDS011;67584;51.400;6.692;2024-03-02T08:24:50;3.33;;;2.50;;
78324;SDS011;67584;51.400;6.692;2024-03-02T08:27:16;2.90;;;2.60;;
78324;SDS011;67584;51.400;6.692;2024-03-02T08:29:42;2.97;;;2.55;;
78324;SDS011;67584;51.400;6.692;2024-03-02T08:32:08;3.05;;;2.45;;
78324;SDS011;67584;51.400;6.692;2024-03-02T08:34:33;4.30;;;2.85;;
78324;SDS011;67584;51.400;6.692;2024-03-02T08:37:03;4.80;;;2.65;;
78324;SDS011;67584;51.400;6.692;2024-03-02T08:39:30;3.25;;;2.95;;
78324;SDS011;67584;51.400;6.692;2024-03-02T08:41:56;3.30;;;2.83;;
78324;SDS011;67584;51.400;6.692;2024-03-02T08:44:21;2.60;;;2.20;;
78324;SDS011;67584;51.400;6.692;2024-03-02T08:46:47;3.00;;;2.45;;
78324;SDS011;67584;51.400;6.692;2024-03-02T08:49:16;3.85;;;2.58;;
78324;SDS011;67584;51.400;6.692;2024-03-02T08:51:42;4.22;;;2.95;;
78324;SDS011;67584;51.400;6.692;2024-03-02T08:54:08;4.47;;;2.50;;
78324;SDS011;67584;51.400;6.692;2024-03-02T08:56:33;3.85;;;3.35;;
78324;SDS011;67584;51.400;6.692;2024-03-02T08:59:00;2.60;;;2.40;;
78324;SDS011;67584;51.400;6.692;2024-03-02T09:01:30;3.67;;;2.75;;
78324;SDS011;67584;51.400;6.692;2024-03-02T09:03:55;3.20;;;2.90;;
78324;SDS011;67584;51.400;6.692;2024-03-02T09:06:21;3.42;;;2.38;;
78324;SDS011;67584;51.400;6.692;2024-03-02T09:08:47;2.72;;;2.22;;
78324;SDS011;67584;51.400;6.692;2024-03-02T09:11:14;3.22;;;2.80;;
78324;SDS011;67584;51.400;6.692;2024-03-02T09:13:40;2.63;;;2.30;;
78324;SDS011;67584;51.400;6.692;2024-03-02T09:16:06;3.55;;;2.60;;
78324;SDS011;67584;51.400;6.692;2024-03-02T09:18:32;2.65;;;2.35;;
78324;SDS011;67584;51.400;6.692;2024-03-02T09:20:58;2.90;;;2.22;;
78324;SDS011;67584;51.400;6.692;2024-03-02T09:23:23;2.47;;;1.85;;
78324;SDS011;67584;51.400;6.692;2024-03-02T09:25:49;3.08;;;2.55;;
78324;SDS011;67584;51.400;6.692;2024-03-02T09:28:15;2.88;;;1.80;;
78324;SDS011;67584;51.400;6.692;2024-03-02T09:30:41;2.50;;;2.30;;
78324;SDS011;67584;51.400;6.692;2024-03-02T09:33:07;2.47;;;1.83;;
78324;SDS011;67584;51.400;6.692;2024-03-02T09:35:32;2.47;;;1.70;;
78324;SDS011;67584;51.400;6.692;2024-03-02T09:37:58;2.30;;;1.70;;
78324;SDS011;67584;51.400;6.692;2024-03-02T09:40:24;2.63;;;2.10;;
78324;SDS011;67584;51.400;6.692;2024-03-02T09:42:50;2.60;;;2.03;;
78324;SDS011;67584;51.400;6.692;2024-03-02T09:45:22;2.22;;;1.73;;
78324;SDS011;67584;51.400;6.692;2024-03-02T09:47:49;2.50;;;1.65;;
78324;SDS011;67584;51.400;6.692;2024-03-02T09:50:15;1.88;;;1.50;;
78324;SDS011;67584;51.400;6.692;2024-03-02T09:52:44;3.28;;;1.83;;
78324;SDS011;67584;51.400;6.692;2024-03-02T09:55:13;1.85;;;1.52;;
78324;SDS011;67584;51.400;6.692;2024-03-02T09:57:40;2.10;;;1.52;;
78324;SDS011;67584;51.400;6.692;2024-03-02T10:00:07;2.13;;;1.60;;
78324;SDS011;67584;51.400;6.692;2024-03-02T10:02:33;1.60;;;1.48;;
78324;SDS011;67584;51.400;6.692;2024-03-02T10:04:59;1.60;;;1.50;;
78324;SDS011;67584;51.400;6.692;2024-03-02T10:07:25;1.65;;;1.52;;
78324;SDS011;67584;51.400;6.692;2024-03-02T10:09:50;2.25;;;1.67;;
78324;SDS011;67584;51.400;6.692;2024-03-02T10:12:17;2.50;;;1.95;;
78324;SDS011;67584;51.400;6.692;2024-03-02T10:14:44;1.50;;;1.40;;
78324;SDS011;67584;51.400;6.692;2024-03-02T10:17:11;2.42;;;1.83;;
78324;SDS011;67584;51.400;6.692;2024-03-02T10:19:38;2.38;;;1.67;;
78324;SDS011;67584;51.400;6.692;2024-03-02T10:22:05;1.80;;;1.60;;
78324;SDS011;67584;51.400;6.692;2024-03-02T10:24:41;2.00;;;1.50;;
78324;SDS011;67584;51.400;6.692;2024-03-02T10:29:42;3.88;;;1.80;;
78324;SDS011;67584;51.400;6.692;2024-03-02T10:32:11;2.25;;;1.90;;
78324;SDS011;67584;51.400;6.692;2024-03-02T10:34:37;2.70;;;1.77;;
78324;SDS011;67584;51.400;6.692;2024-03-02T10:37:07;4.45;;;2.10;;
78324;SDS011;67584;51.400;6.692;2024-03-02T10:39:34;1.70;;;1.60;;
78324;SDS011;67584;51.400;6.692;2024-03-02T10:42:02;2.22;;;1.80;;
78324;SDS011;67584;51.400;6.692;2024-03-02T10:44:28;2.03;;;1.63;;
78324;SDS011;67584;51.400;6.692;2024-03-02T10:46:55;2.47;;;2.03;;
78324;SDS011;67584;51.400;6.692;2024-03-02T10:49:22;1.92;;;1.73;;
78324;SDS011;67584;51.400;6.692;2024-03-02T10:51:50;12.27;;;1.95;;
78324;SDS011;67584;51.400;6.692;2024-03-02T10:54:16;3.15;;;1.48;;
78324;SDS011;67584;51.400;6.692;2024-03-02T10:56:44;2.50;;;1.50;;
78324;SDS011;67584;51.400;6.692;2024-03-02T11:01:56;2.13;;;1.45;;
78324;SDS011;67584;51.400;6.692;2024-03-02T11:04:27;2.15;;;1.70;;
78324;SDS011;67584;51.400;6.692;2024-03-02T11:09:29;1.60;;;1.48;;
78324;SDS011;67584;51.400;6.692;2024-03-02T11:12:19;3.00;;;1.92;;
78324;SDS011;67584;51.400;6.692;2024-03-02T11:15:02;4.65;;;2.00;;
78324;SDS011;67584;51.400;6.692;2024-03-02T11:17:34;3.80;;;2.10;;
78324;SDS011;67584;51.400;6.692;2024-03-02T11:20:00;2.28;;;1.63;;
78324;SDS011;67584;51.400;6.692;2024-03-02T11:22:26;2.80;;;1.70;;
78324;SDS011;67584;51.400;6.692;2024-03-02T11:24:52;2.38;;;1.48;;
78324;SDS011;67584;51.400;6.692;2024-03-02T11:33:03;1.88;;;1.30;;
78324;SDS011;67584;51.400;6.692;2024-03-02T11:35:36;2.42;;;1.50;;
78324;SDS011;67584;51.400;6.692;2024-03-02T11:38:03;3.63;;;1.67;;
78324;SDS011;67584;51.400;6.692;2024-03-02T11:40:29;3.35;;;2.13;;
78324;SDS011;67584;51.400;6.692;2024-03-02T11:42:56;4.65;;;2.30;;
78324;SDS011;67584;51.400;6.692;2024-03-02T11:45:24;3.33;;;2.03;;
78324;SDS011;67584;51.400;6.692;2024-03-02T11:47:54;3.35;;;2.17;;
78324;SDS011;67584;51.400;6.692;2024-03-02T11:53:05;3.40;;;2.72;;
78324;SDS011;67584;51.400;6.692;2024-03-02T11:55:32;3.00;;;1.80;;
78324;SDS011;67584;51.400;6.692;2024-03-02T11:58:01;2.97;;;1.67;;
78324;SDS011;67584;51.400;6.692;2024-03-02T12:00:28;3.47;;;2.22;;
78324;SDS011;67584;51.400;6.692;2024-03-02T12:03:01;3.35;;;1.92;;
78324;SDS011;67584;51.400;6.692;2024-03-02T12:05:29;3.83;;;2.00;;
78324;SDS011;67584;51.400;6.692;2024-03-02T12:07:59;3.00;;;2.10;;
78324;SDS011;67584;51.400;6.692;2024-03-02T12:10:26;7.43;;;3.28;;
78324;SDS011;67584;51.400;6.692;2024-03-02T12:12:55;2.30;;;1.83;;
78324;SDS011;67584;51.400;6.692;2024-03-02T12:15:33;3.53;;;2.03;;
78324;SDS011;67584;51.400;6.692;2024-03-02T12:18:00;3.75;;;2.38;;
78324;SDS011;67584;51.400;6.692;2024-03-02T12:20:27;4.35;;;2.88;;
78324;SDS011;67584;51.400;6.692;2024-03-02T12:22:54;5.18;;;2.60;;
78324;SDS011;67584;51.400;6.692;2024-03-02T12:25:23;2.58;;;1.90;;
78324;SDS011;67584;51.400;6.692;2024-03-02T12:27:50;3.75;;;2.45;;
78324;SDS011;67584;51.400;6.692;2024-03-02T12:30:18;3.53;;;2.20;;
78324;SDS011;67584;51.400;6.692;2024-03-02T12:32:45;3.25;;;2.30;;
78324;SDS011;67584;51.400;6.692;2024-03-02T12:35:11;2.92;;;2.00;;
78324;SDS011;67584;51.400;6.692;2024-03-02T12:37:44;2.40;;;1.92;;
78324;SDS011;67584;51.400;6.692;2024-03-02T12:40:11;3.55;;;2.10;;
78324;SDS011;67584;51.400;6.692;2024-03-02T12:42:38;5.32;;;2.50;;
78324;SDS011;67584;51.400;6.692;2024-03-02T12:45:07;3.88;;;2.50;;
78324;SDS011;67584;51.400;6.692;2024-03-02T12:47:34;5.13;;;2.58;;
78324;SDS011;67584;51.400;6.692;2024-03-02T12:50:00;4.53;;;2.22;;
78324;SDS011;67584;51.400;6.692;2024-03-02T12:52:26;2.80;;;2.10;;
78324;SDS011;67584;51.400;6.692;2024-03-02T12:54:52;3.42;;;1.98;;
78324;SDS011;67584;51.400;6.692;2024-03-02T12:57:18;3.58;;;1.90;;
78324;SDS011;67584;51.400;6.692;2024-03-02T12:59:47;3.92;;;2.05;;
78324;SDS011;67584;51.400;6.692;2024-03-02T13:02:19;4.00;;;2.75;;
78324;SDS011;67584;51.400;6.692;2024-03-02T13:04:51;4.18;;;2.28;;
78324;SDS011;67584;51.400;6.692;2024-03-02T13:07:18;3.55;;;2.08;;
78324;SDS011;67584;51.400;6.692;2024-03-02T13:09:45;4.43;;;1.83;;
78324;SDS011;67584;51.400;6.692;2024-03-02T13:12:11;3.67;;;1.90;;
78324;SDS011;67584;51.400;6.692;2024-03-02T13:14:37;9.10;;;2.60;;
78324;SDS011;67584;51.400;6.692;2024-03-02T13:17:02;3.78;;;2.53;;
78324;SDS011;67584;51.400;6.692;2024-03-02T13:19:31;3.47;;;2.17;;
78324;SDS011;67584;51.400;6.692;2024-03-02T13:21:57;5.03;;;2.45;;
78324;SDS011;67584;51.400;6.692;2024-03-02T13:24:23;4.07;;;2.30;;
78324;SDS011;67584;51.400;6.692;2024-03-02T13:26:54;4.20;;;2.20;;
78324;SDS011;67584;51.400;6.692;2024-03-02T13:29:21;4.28;;;1.98;;
78324;SDS011;67584;51.400;6.692;2024-03-02T13:31:47;4.38;;;2.30;;
78324;SDS011;67584;51.400;6.692;2024-03-02T13:34:13;5.20;;;2.80;;
78324;SDS011;67584;51.400;6.692;2024-03-02T13:36:39;3.88;;;2.17;;
78324;SDS011;67584;51.400;6.692;2024-03-02T13:39:05;3.70;;;2.33;;
78324;SDS011;67584;51.400;6.692;2024-03-02T13:41:31;3.65;;;2.47;;
78324;SDS011;67584;51.400;6.692;2024-03-02T13:43:57;3.33;;;2.30;;
78324;SDS011;67584;51.400;6.692;2024-03-02T13:46:26;4.68;;;2.20;;
78324;SDS011;67584;51.400;6.692;2024-03-02T13:48:52;2.88;;;2.17;;
78324;SDS011;67584;51.400;6.692;2024-03-02T13:51:18;3.30;;;2.38;;
78324;SDS011;67584;51.400;6.692;2024-03-02T13:53:44;4.35;;;1.98;;
78324;SDS011;67584;51.400;6.692;2024-03-02T13:56:09;5.93;;;3.25;;
78324;SDS011;67584;51.400;6.692;2024-03-02T13:58:35;4.47;;;2.42;;
78324;SDS011;67584;51.400;6.692;2024-03-02T14:01:00;3.95;;;2.35;;
78324;SDS011;67584;51.400;6.692;2024-03-02T14:05:55;4.32;;;2.17;;
78324;SDS011;67584;51.400;6.692;2024-03-02T14:08:21;2.75;;;2.10;;
78324;SDS011;67584;51.400;6.692;2024-03-02T14:10:46;2.78;;;1.88;;
78324;SDS011;67584;51.400;6.692;2024-03-02T14:13:12;2.15;;;1.90;;
78324;SDS011;67584;51.400;6.692;2024-03-02T14:15:38;3.42;;;1.88;;
78324;SDS011;67584;51.400;6.692;2024-03-02T14:18:05;2.70;;;1.60;;
78324;SDS011;67584;51.400;6.692;2024-03-02T14:20:31;2.33;;;2.00;;
78324;SDS011;67584;51.400;6.692;2024-03-02T14:23:00;4.18;;;1.85;;
78324;SDS011;67584;51.400;6.692;2024-03-02T14:25:28;2.15;;;1.80;;
78324;SDS011;67584;51.400;6.692;2024-03-02T14:30:23;3.97;;;2.05;;
78324;SDS011;67584;51.400;6.692;2024-03-02T14:32:49;2.20;;;1.80;;
78324;SDS011;67584;51.400;6.692;2024-03-02T14:35:14;3.30;;;2.53;;
78324;SDS011;67584;51.400;6.692;2024-03-02T14:37:40;2.33;;;2.00;;
78324;SDS011;67584;51.400;6.692;2024-03-02T14:40:06;2.33;;;2.13;;
78324;SDS011;67584;51.400;6.692;2024-03-02T14:42:35;1.92;;;1.70;;
78324;SDS011;67584;51.400;6.692;2024-03-02T14:45:01;3.08;;;1.95;;
78324;SDS011;67584;51.400;6.692;2024-03-02T14:47:33;2.47;;;1.77;;
78324;SDS011;67584;51.400;6.692;2024-03-02T14:50:00;3.25;;;2.00;;
78324;SDS011;67584;51.400;6.692;2024-03-02T14:52:31;3.00;;;1.92;;
78324;SDS011;67584;51.400;6.692;2024-03-02T14:54:58;2.55;;;1.92;;
78324;SDS011;67584;51.400;6.692;2024-03-02T14:57:24;1.73;;;1.63;;
78324;SDS011;67584;51.400;6.692;2024-03-02T14:59:49;2.17;;;1.50;;
78324;SDS011;67584;51.400;6.692;2024-03-02T15:02:15;2.55;;;1.67;;
78324;SDS011;67584;51.400;6.692;2024-03-02T15:04:41;2.70;;;1.60;;
78324;SDS011;67584;51.400;6.692;2024-03-02T15:07:09;2.47;;;1.70;;
78324;SDS011;67584;51.400;6.692;2024-03-02T15:09:36;2.53;;;1.60;;
78324;SDS011;67584;51.400;6.692;2024-03-02T15:12:07;2.70;;;1.83;;
78324;SDS011;67584;51.400;6.692;2024-03-02T15:14:38;2.85;;;1.90;;